createdAt,value
2018-11-26T00:02:40.985Z,37.63
2018-11-26T00:07:45.596Z,41.53
2018-11-26T00:12:50.121Z,40.27
2018-11-26T00:17:54.689Z,38.97
2018-11-26T00:22:59.264Z,34.87
2018-11-26T00:28:03.876Z,39.40
2018-11-26T00:33:08.494Z,42.37
2018-11-26T00:38:13.122Z,32.33
2018-11-26T00:43:17.746Z,38.27
2018-11-26T00:48:22.309Z,36.17
2018-11-26T00:53:26.940Z,35.17
2018-11-26T00:58:31.597Z,37.87
2018-11-26T01:03:36.228Z,42.23
2018-11-26T01:08:40.857Z,42.03
2018-11-26T01:13:45.570Z,39.27
2018-11-26T01:18:50.219Z,37.43
2018-11-26T01:23:54.854Z,46.53
2018-11-26T01:28:59.441Z,47.47
2018-11-26T01:34:04.042Z,57.77
2018-11-26T01:39:09.514Z,60.43
2018-11-26T01:44:14.101Z,71.40
2018-11-26T01:49:18.711Z,59.40
2018-11-26T01:54:23.326Z,57.07
2018-11-26T01:59:27.915Z,57.77
2018-11-26T02:04:32.506Z,62.23
2018-11-26T02:09:37.094Z,66.73
2018-11-26T02:14:41.657Z,59.10
2018-11-26T02:19:46.265Z,82.87
2018-11-26T02:24:50.893Z,78.47
2018-11-26T02:29:55.543Z,77.07
2018-11-26T02:35:00.191Z,86.67
2018-11-26T02:40:05.250Z,99.67
2018-11-26T02:45:09.901Z,87.50
2018-11-26T02:50:14.479Z,80.93
2018-11-26T02:55:19.112Z,87.60
2018-11-26T03:00:23.655Z,94.43
2018-11-26T03:05:29.209Z,112.53
2018-11-26T03:10:33.806Z,111.73
2018-11-26T03:15:38.398Z,95.77
2018-11-26T03:20:42.990Z,109.50
2018-11-26T03:25:47.635Z,103.57
2018-11-26T03:30:52.236Z,126.67
2018-11-26T03:35:56.871Z,130.73
2018-11-26T03:41:01.489Z,127.17
2018-11-26T03:46:06.115Z,112.57
2018-11-26T03:51:10.758Z,114.07
2018-11-26T03:56:15.404Z,133.10
2018-11-26T04:01:20.078Z,122.73
2018-11-26T04:06:24.700Z,121.93
2018-11-26T04:11:29.289Z,128.60
2018-11-26T04:16:33.980Z,114.80
2018-11-26T04:21:38.677Z,121.77
2018-11-26T04:26:43.340Z,114.23
2018-11-26T04:31:48.025Z,108.00
2018-11-26T04:36:52.711Z,122.17
2018-11-26T04:41:57.311Z,104.17
2018-11-26T04:47:01.860Z,126.60
2018-11-26T04:52:10.826Z,113.17
2018-11-26T04:57:15.417Z,114.60
2018-11-26T05:02:20.028Z,110.30
2018-11-26T05:07:24.650Z,108.37
2018-11-26T05:12:29.235Z,105.17
2018-11-26T05:17:33.909Z,110.93
2018-11-26T05:22:38.569Z,106.93
2018-11-26T05:27:46.621Z,101.30
2018-11-26T05:32:51.324Z,100.70
2018-11-26T05:37:55.968Z,123.90
2018-11-26T05:43:00.611Z,130.17
2018-11-26T05:48:05.250Z,122.30
2018-11-26T05:53:09.824Z,115.63
2018-11-26T05:58:14.438Z,124.03
2018-11-26T06:03:19.057Z,127.20
2018-11-26T06:08:23.702Z,125.07
2018-11-26T06:13:28.293Z,129.43
2018-11-26T06:18:32.848Z,131.57
2018-11-26T06:23:37.377Z,138.43
2018-11-26T06:28:44.472Z,120.60
2018-11-26T06:33:52.494Z,112.90
2018-11-26T06:39:19.142Z,134.43
2018-11-26T06:44:23.810Z,138.03
2018-11-26T06:49:29.397Z,120.93
2018-11-26T06:54:34.471Z,131.07
2018-11-26T06:59:39.159Z,127.27
2018-11-26T07:04:43.827Z,122.30
2018-11-26T07:09:48.463Z,138.23
2018-11-26T07:14:53.131Z,135.17
2018-11-26T07:19:58.031Z,130.03
2018-11-26T07:25:08.593Z,147.37
2018-11-26T07:30:17.602Z,119.83
2018-11-26T07:35:27.210Z,133.57
2018-11-26T07:40:33.692Z,151.23
2018-11-26T07:45:51.174Z,126.60
2018-11-26T07:51:07.228Z,152.57
2018-11-26T07:56:13.049Z,137.80
2018-11-26T08:01:19.377Z,151.90
2018-11-26T08:06:24.320Z,122.63
2018-11-26T08:11:29.349Z,153.93
2018-11-26T08:16:34.245Z,185.63
2018-11-26T08:21:39.150Z,147.63
2018-11-26T08:26:44.036Z,141.33
2018-11-26T08:31:52.684Z,156.90
2018-11-26T08:37:03.672Z,134.40
2018-11-26T08:42:14.075Z,152.80
2018-11-26T08:48:26.611Z,153.77
2018-11-26T08:53:42.331Z,155.87
2018-11-26T09:04:10.287Z,147.40
2018-11-26T09:09:23.191Z,160.83
2018-11-26T09:14:36.786Z,164.93
2018-11-26T09:19:48.561Z,154.87
2018-11-26T09:24:54.893Z,127.77
2018-11-26T09:30:08.106Z,120.60
2018-11-26T09:35:23.545Z,117.10
2018-11-26T09:40:43.340Z,132.37
2018-11-26T09:45:57.777Z,124.33
2018-11-26T09:51:20.818Z,125.63
2018-11-26T09:56:34.735Z,134.60
2018-11-26T10:01:50.577Z,110.50
2018-11-26T10:07:06.917Z,120.63
2018-11-26T10:12:12.256Z,111.47
2018-11-26T10:17:25.542Z,115.73
2018-11-26T10:22:36.703Z,121.27
2018-11-26T10:27:46.352Z,99.50
2018-11-26T10:33:00.132Z,89.20
2018-11-26T10:38:11.407Z,83.87
2018-11-26T10:43:22.461Z,86.60
2018-11-26T10:48:34.772Z,91.43
2018-11-26T10:53:39.942Z,78.63
2018-11-26T10:58:51.559Z,86.73
2018-11-26T11:09:43.873Z,79.23
2018-11-26T11:15:01.222Z,66.20
2018-11-26T11:20:17.125Z,72.20
2018-11-26T11:25:38.679Z,67.77
2018-11-26T11:30:49.932Z,68.83
2018-11-26T11:36:01.315Z,67.70
2018-11-26T11:41:13.269Z,69.63
2018-11-26T11:46:23.958Z,64.73
2018-11-26T11:51:34.506Z,62.03
2018-11-26T11:56:49.729Z,58.37
2018-11-26T12:01:59.056Z,59.23
2018-11-26T12:07:07.834Z,57.77
2018-11-26T12:12:30.740Z,63.47
2018-11-26T12:17:35.942Z,63.13
2018-11-26T12:22:49.897Z,61.13
2018-11-26T12:28:03.394Z,56.70
2018-11-26T12:33:16.547Z,52.47
2018-11-26T12:38:27.709Z,57.57
2018-11-26T12:43:38.611Z,50.03
2018-11-26T12:48:49.695Z,57.37
2018-11-26T12:54:00.170Z,63.83
2018-11-26T12:59:05.273Z,68.83
2018-11-26T13:04:11.875Z,70.20
2018-11-26T13:09:26.148Z,60.83
2018-11-26T13:14:38.482Z,64.90
2018-11-26T13:19:50.024Z,68.77
2018-11-26T13:25:02.872Z,65.67
2018-11-26T13:30:24.930Z,75.93
2018-11-26T13:35:39.812Z,78.23
2018-11-26T13:40:52.566Z,87.93
2018-11-26T13:46:09.277Z,85.63
2018-11-26T13:51:28.498Z,91.20
2018-11-26T13:56:41.142Z,77.27
2018-11-26T14:02:11.556Z,85.37
2018-11-26T14:07:23.156Z,82.10
2018-11-26T14:12:48.498Z,94.33
2018-11-26T14:18:06.744Z,93.20
2018-11-26T14:23:28.334Z,98.73
2018-11-26T14:28:39.446Z,105.13
2018-11-26T14:33:52.743Z,107.87
2018-11-26T14:39:10.263Z,89.07
2018-11-26T14:44:26.330Z,92.60
2018-11-26T14:49:40.404Z,80.93
2018-11-26T14:55:02.469Z,60.60
2018-11-26T15:00:21.010Z,53.00
2018-11-26T15:05:40.001Z,50.03
2018-11-26T15:10:48.197Z,47.50
2018-11-26T15:15:58.701Z,50.63
2018-11-26T15:26:22.588Z,50.27
2018-11-26T15:31:50.138Z,45.93
2018-11-26T15:37:02.535Z,47.53
2018-11-26T15:42:18.624Z,52.40
2018-11-26T15:47:27.763Z,54.53
2018-11-26T15:52:37.391Z,55.60
2018-11-26T15:57:42.288Z,65.10
2018-11-26T16:02:46.913Z,71.63
2018-11-26T16:07:59.148Z,68.83
2018-11-26T16:13:04.822Z,68.53
2018-11-26T16:18:13.497Z,62.40
2018-11-26T16:23:17.283Z,63.90
2018-11-26T16:28:23.626Z,63.63
2018-11-26T16:33:28.581Z,59.63
2018-11-26T16:38:33.350Z,60.93
2018-11-26T16:43:37.986Z,58.70
2018-11-26T16:48:52.927Z,67.73
2018-11-26T16:54:27.628Z,75.73
2018-11-26T17:41:15.212Z,63.73
2018-11-26T17:46:20.608Z,64.67
2018-11-26T17:56:54.279Z,70.53
2018-11-26T18:02:00.631Z,66.07
2018-11-26T18:07:06.931Z,70.03
2018-11-26T18:12:14.177Z,71.70
2018-11-26T18:50:17.662Z,47.00
2018-11-26T18:55:22.215Z,50.47
2018-11-26T19:01:06.812Z,51.07
2018-11-26T19:06:24.055Z,46.07
2018-11-26T19:11:28.832Z,47.53
2018-11-26T19:16:47.187Z,50.67
2018-11-26T19:21:51.889Z,51.73
2018-11-26T19:26:56.500Z,53.23
2018-11-26T19:32:02.201Z,49.53
2018-11-26T19:42:15.288Z,52.10
2018-11-26T19:47:20.153Z,53.63
2018-11-26T19:52:25.213Z,49.67
2018-11-26T19:57:31.118Z,49.97
2018-11-26T20:02:36.583Z,46.60
2018-11-26T20:07:41.967Z,49.00
2018-11-26T20:12:47.760Z,53.13
2018-11-26T20:17:52.959Z,50.77
2018-11-26T20:22:58.251Z,53.90
2018-11-26T20:28:04.972Z,54.97
2018-11-26T20:33:11.887Z,55.33
2018-11-26T20:38:17.504Z,58.00
2018-11-26T20:43:23.580Z,57.63
2018-11-26T20:48:30.676Z,54.53
2018-11-26T20:53:37.023Z,58.67
2018-11-26T21:04:21.669Z,55.50
2018-11-26T21:09:30.202Z,55.70
2018-11-26T21:14:42.642Z,60.20
2018-11-26T21:49:47.729Z,60.93
2018-11-26T21:55:16.465Z,55.33
